sensor_id;sensor_type;location;lat;lon;timestamp;temperature;humidity
13268;DHT22;6702;47.068;15.458;2022-11-15T00:01:07;10.40;99.90
13268;DHT22;6702;47.068;15.458;2022-11-15T00:04:10;10.40;99.90
13268;DHT22;6702;47.068;15.458;2022-11-15T00:07:14;10.30;99.90
13268;DHT22;6702;47.068;15.458;2022-11-15T00:10:38;10.20;99.90
13268;DHT22;6702;47.068;15.458;2022-11-15T00:13:41;10.30;99.90
13268;DHT22;6702;47.068;15.458;2022-11-15T00:16:45;10.30;99.90
13268;DHT22;6702;47.068;15.458;2022-11-15T00:19:48;10.30;99.90
13268;DHT22;6702;47.068;15.458;2022-11-15T00:22:52;10.30;99.90
13268;DHT22;6702;47.068;15.458;2022-11-15T00:25:57;10.40;99.90
13268;DHT22;6702;47.068;15.458;2022-11-15T00:29:00;10.50;99.90
13268;DHT22;6702;47.068;15.458;2022-11-15T00:32:04;10.50;99.90
13268;DHT22;6702;47.068;15.458;2022-11-15T00:35:07;10.50;99.90
13268;DHT22;6702;47.068;15.458;2022-11-15T00:38:11;10.50;99.90
13268;DHT22;6702;47.068;15.458;2022-11-15T00:41:15;10.60;99.90
13268;DHT22;6702;47.068;15.458;2022-11-15T00:44:18;10.60;99.90
13268;DHT22;6702;47.068;15.458;2022-11-15T00:47:22;10.60;99.90
13268;DHT22;6702;47.068;15.458;2022-11-15T00:50:25;10.50;99.90
13268;DHT22;6702;47.068;15.458;2022-11-15T00:53:28;10.50;99.90
13268;DHT22;6702;47.068;15.458;2022-11-15T00:56:33;10.50;99.90
13268;DHT22;6702;47.068;15.458;2022-11-15T00:59:36;10.50;99.90
13268;DHT22;6702;47.068;15.458;2022-11-15T01:02:39;10.50;99.90
13268;DHT22;6702;47.068;15.458;2022-11-15T01:05:43;10.50;99.90
13268;DHT22;6702;47.068;15.458;2022-11-15T01:08:46;10.60;99.90
13268;DHT22;6702;47.068;15.458;2022-11-15T01:11:50;10.70;99.90
13268;DHT22;6702;47.068;15.458;2022-11-15T01:14:54;10.70;99.90
13268;DHT22;6702;47.068;15.458;2022-11-15T01:17:57;10.80;99.90
13268;DHT22;6702;47.068;15.458;2022-11-15T01:21:05;10.90;99.90
13268;DHT22;6702;47.068;15.458;2022-11-15T01:24:12;11.00;99.90
13268;DHT22;6702;47.068;15.458;2022-11-15T01:27:17;11.10;99.90
13268;DHT22;6702;47.068;15.458;2022-11-15T01:30:20;11.10;99.90
13268;DHT22;6702;47.068;15.458;2022-11-15T01:33:23;11.10;99.90
13268;DHT22;6702;47.068;15.458;2022-11-15T01:36:26;11.10;99.90
13268;DHT22;6702;47.068;15.458;2022-11-15T01:39:30;11.10;99.90
13268;DHT22;6702;47.068;15.458;2022-11-15T01:42:34;11.00;99.90
13268;DHT22;6702;47.068;15.458;2022-11-15T01:45:37;11.00;99.90
13268;DHT22;6702;47.068;15.458;2022-11-15T01:48:40;10.90;99.90
13268;DHT22;6702;47.068;15.458;2022-11-15T01:51:44;10.90;99.90
13268;DHT22;6702;47.068;15.458;2022-11-15T01:54:48;10.90;99.90
13268;DHT22;6702;47.068;15.458;2022-11-15T01:57:57;10.90;99.90
13268;DHT22;6702;47.068;15.458;2022-11-15T02:01:01;10.90;99.90
13268;DHT22;6702;47.068;15.458;2022-11-15T02:04:09;10.90;99.90
13268;DHT22;6702;47.068;15.458;2022-11-15T02:07:16;10.80;99.90
13268;DHT22;6702;47.068;15.458;2022-11-15T02:10:23;10.80;99.90
13268;DHT22;6702;47.068;15.458;2022-11-15T02:13:28;10.80;99.90
13268;DHT22;6702;47.068;15.458;2022-11-15T02:16:43;10.80;99.90
13268;DHT22;6702;47.068;15.458;2022-11-15T02:28:05;10.60;99.90
13268;DHT22;6702;47.068;15.458;2022-11-15T02:31:14;10.60;99.90
13268;DHT22;6702;47.068;15.458;2022-11-15T02:34:26;10.70;99.90
13268;DHT22;6702;47.068;15.458;2022-11-15T02:37:36;10.70;99.90
13268;DHT22;6702;47.068;15.458;2022-11-15T02:40:48;10.70;99.90
13268;DHT22;6702;47.068;15.458;2022-11-15T02:44:01;10.60;99.90
13268;DHT22;6702;47.068;15.458;2022-11-15T02:47:10;10.60;99.90
13268;DHT22;6702;47.068;15.458;2022-11-15T02:50:19;10.60;99.90
13268;DHT22;6702;47.068;15.458;2022-11-15T02:53:25;10.50;99.90
13268;DHT22;6702;47.068;15.458;2022-11-15T02:56:28;10.60;99.90
13268;DHT22;6702;47.068;15.458;2022-11-15T02:59:46;10.50;99.90
13268;DHT22;6702;47.068;15.458;2022-11-15T03:03:05;10.60;99.90
13268;DHT22;6702;47.068;15.458;2022-11-15T03:06:20;10.60;99.90
13268;DHT22;6702;47.068;15.458;2022-11-15T03:09:33;10.60;99.90
13268;DHT22;6702;47.068;15.458;2022-11-15T03:12:43;10.60;99.90
13268;DHT22;6702;47.068;15.458;2022-11-15T03:15:55;10.60;99.90
13268;DHT22;6702;47.068;15.458;2022-11-15T03:19:05;10.50;99.90
13268;DHT22;6702;47.068;15.458;2022-11-15T03:22:12;10.50;99.90
13268;DHT22;6702;47.068;15.458;2022-11-15T03:25:19;10.50;99.90
13268;DHT22;6702;47.068;15.458;2022-11-15T03:28:27;10.50;99.90
13268;DHT22;6702;47.068;15.458;2022-11-15T03:31:36;10.50;99.90
13268;DHT22;6702;47.068;15.458;2022-11-15T03:34:57;10.50;99.90
13268;DHT22;6702;47.068;15.458;2022-11-15T03:38:05;10.50;99.90
13268;DHT22;6702;47.068;15.458;2022-11-15T03:41:17;10.60;99.90
13268;DHT22;6702;47.068;15.458;2022-11-15T03:44:32;10.70;99.90
13268;DHT22;6702;47.068;15.458;2022-11-15T03:47:40;10.80;99.90
13268;DHT22;6702;47.068;15.458;2022-11-15T03:50:46;10.70;99.90
13268;DHT22;6702;47.068;15.458;2022-11-15T03:53:50;10.70;99.90
13268;DHT22;6702;47.068;15.458;2022-11-15T03:56:53;10.70;99.90
13268;DHT22;6702;47.068;15.458;2022-11-15T03:59:57;10.70;99.90
13268;DHT22;6702;47.068;15.458;2022-11-15T04:03:00;10.70;99.90
13268;DHT22;6702;47.068;15.458;2022-11-15T04:06:05;10.70;99.90
13268;DHT22;6702;47.068;15.458;2022-11-15T04:09:08;10.70;99.90
13268;DHT22;6702;47.068;15.458;2022-11-15T04:12:11;10.50;99.90
13268;DHT22;6702;47.068;15.458;2022-11-15T04:15:16;10.50;99.90
13268;DHT22;6702;47.068;15.458;2022-11-15T04:18:19;10.50;99.90
13268;DHT22;6702;47.068;15.458;2022-11-15T04:21:24;10.40;99.90
13268;DHT22;6702;47.068;15.458;2022-11-15T04:24:45;10.40;99.90
13268;DHT22;6702;47.068;15.458;2022-11-15T04:27:48;10.40;99.90
13268;DHT22;6702;47.068;15.458;2022-11-15T04:30:51;10.40;99.90
13268;DHT22;6702;47.068;15.458;2022-11-15T04:33:55;10.40;99.90
13268;DHT22;6702;47.068;15.458;2022-11-15T04:36:59;10.40;99.90
13268;DHT22;6702;47.068;15.458;2022-11-15T04:40:14;10.40;99.90
13268;DHT22;6702;47.068;15.458;2022-11-15T04:43:18;10.40;99.90
13268;DHT22;6702;47.068;15.458;2022-11-15T04:46:21;10.30;99.90
13268;DHT22;6702;47.068;15.458;2022-11-15T04:49:25;10.40;99.90
13268;DHT22;6702;47.068;15.458;2022-11-15T04:52:29;10.40;99.90
13268;DHT22;6702;47.068;15.458;2022-11-15T04:55:33;10.30;99.90
13268;DHT22;6702;47.068;15.458;2022-11-15T04:58:36;10.30;99.90
13268;DHT22;6702;47.068;15.458;2022-11-15T05:01:39;10.30;99.90
13268;DHT22;6702;47.068;15.458;2022-11-15T05:04:46;10.30;99.90
13268;DHT22;6702;47.068;15.458;2022-11-15T05:07:50;10.30;99.90
13268;DHT22;6702;47.068;15.458;2022-11-15T05:10:53;10.30;99.90
13268;DHT22;6702;47.068;15.458;2022-11-15T05:13:57;10.30;99.90
13268;DHT22;6702;47.068;15.458;2022-11-15T05:17:00;10.30;99.90
13268;DHT22;6702;47.068;15.458;2022-11-15T05:20:05;10.30;99.90
13268;DHT22;6702;47.068;15.458;2022-11-15T05:23:09;10.30;99.90
13268;DHT22;6702;47.068;15.458;2022-11-15T05:26:14;10.30;99.90
13268;DHT22;6702;47.068;15.458;2022-11-15T05:29:18;10.30;99.90
13268;DHT22;6702;47.068;15.458;2022-11-15T05:32:21;10.30;99.90
13268;DHT22;6702;47.068;15.458;2022-11-15T05:35:29;10.30;99.90
13268;DHT22;6702;47.068;15.458;2022-11-15T05:38:35;10.20;99.90
13268;DHT22;6702;47.068;15.458;2022-11-15T05:41:41;10.30;99.90
13268;DHT22;6702;47.068;15.458;2022-11-15T05:44:48;10.30;99.90
13268;DHT22;6702;47.068;15.458;2022-11-15T05:47:52;10.30;99.90
13268;DHT22;6702;47.068;15.458;2022-11-15T05:50:58;10.30;99.90
13268;DHT22;6702;47.068;15.458;2022-11-15T05:54:03;10.20;99.90
13268;DHT22;6702;47.068;15.458;2022-11-15T05:57:07;10.20;99.90
13268;DHT22;6702;47.068;15.458;2022-11-15T06:00:11;10.20;99.90
13268;DHT22;6702;47.068;15.458;2022-11-15T06:03:15;10.20;99.90
13268;DHT22;6702;47.068;15.458;2022-11-15T06:06:18;10.10;99.90
13268;DHT22;6702;47.068;15.458;2022-11-15T06:09:22;10.00;99.90
13268;DHT22;6702;47.068;15.458;2022-11-15T06:12:25;9.90;99.90
13268;DHT22;6702;47.068;15.458;2022-11-15T06:15:29;9.90;99.90
13268;DHT22;6702;47.068;15.458;2022-11-15T06:18:32;9.90;99.90
13268;DHT22;6702;47.068;15.458;2022-11-15T06:21:36;10.00;99.90
13268;DHT22;6702;47.068;15.458;2022-11-15T06:24:40;10.00;99.90
13268;DHT22;6702;47.068;15.458;2022-11-15T06:27:51;10.10;99.90
13268;DHT22;6702;47.068;15.458;2022-11-15T06:30:54;10.00;99.90
13268;DHT22;6702;47.068;15.458;2022-11-15T06:33:57;10.00;99.90
13268;DHT22;6702;47.068;15.458;2022-11-15T06:37:00;9.90;99.90
13268;DHT22;6702;47.068;15.458;2022-11-15T06:40:06;9.90;99.90
13268;DHT22;6702;47.068;15.458;2022-11-15T06:43:09;9.90;99.90
13268;DHT22;6702;47.068;15.458;2022-11-15T06:46:12;9.90;99.90
13268;DHT22;6702;47.068;15.458;2022-11-15T06:49:15;10.00;99.90
13268;DHT22;6702;47.068;15.458;2022-11-15T06:52:19;9.80;99.90
13268;DHT22;6702;47.068;15.458;2022-11-15T06:55:24;9.90;99.90
13268;DHT22;6702;47.068;15.458;2022-11-15T06:58:28;9.90;99.90
13268;DHT22;6702;47.068;15.458;2022-11-15T07:01:31;9.90;99.90
13268;DHT22;6702;47.068;15.458;2022-11-15T07:04:34;9.90;99.90
13268;DHT22;6702;47.068;15.458;2022-11-15T07:07:37;9.90;99.90
13268;DHT22;6702;47.068;15.458;2022-11-15T07:10:42;9.80;99.90
13268;DHT22;6702;47.068;15.458;2022-11-15T07:13:45;9.80;99.90
13268;DHT22;6702;47.068;15.458;2022-11-15T07:16:48;9.90;99.90
13268;DHT22;6702;47.068;15.458;2022-11-15T07:19:51;10.00;99.90
13268;DHT22;6702;47.068;15.458;2022-11-15T07:22:59;10.10;99.90
13268;DHT22;6702;47.068;15.458;2022-11-15T07:26:04;10.20;99.90
13268;DHT22;6702;47.068;15.458;2022-11-15T07:29:08;10.20;99.90
13268;DHT22;6702;47.068;15.458;2022-11-15T07:32:11;10.30;99.90
13268;DHT22;6702;47.068;15.458;2022-11-15T07:35:14;10.40;99.90
13268;DHT22;6702;47.068;15.458;2022-11-15T07:38:17;10.50;99.90
13268;DHT22;6702;47.068;15.458;2022-11-15T07:41:23;10.50;99.90
13268;DHT22;6702;47.068;15.458;2022-11-15T07:44:26;10.50;99.90
13268;DHT22;6702;47.068;15.458;2022-11-15T07:47:29;10.60;99.90
13268;DHT22;6702;47.068;15.458;2022-11-15T07:50:33;10.60;99.90
13268;DHT22;6702;47.068;15.458;2022-11-15T07:53:36;10.60;99.90
13268;DHT22;6702;47.068;15.458;2022-11-15T07:56:40;10.70;99.90
13268;DHT22;6702;47.068;15.458;2022-11-15T07:59:43;10.80;99.90
13268;DHT22;6702;47.068;15.458;2022-11-15T08:02:46;10.80;99.90
13268;DHT22;6702;47.068;15.458;2022-11-15T08:05:50;10.80;99.90
13268;DHT22;6702;47.068;15.458;2022-11-15T08:08:54;10.90;99.90
13268;DHT22;6702;47.068;15.458;2022-11-15T08:11:58;10.90;99.90
13268;DHT22;6702;47.068;15.458;2022-11-15T08:15:02;10.90;99.90
13268;DHT22;6702;47.068;15.458;2022-11-15T08:18:08;10.90;99.90
13268;DHT22;6702;47.068;15.458;2022-11-15T08:21:17;10.90;99.90
13268;DHT22;6702;47.068;15.458;2022-11-15T08:24:20;10.80;99.90
13268;DHT22;6702;47.068;15.458;2022-11-15T08:27:25;10.80;99.90
13268;DHT22;6702;47.068;15.458;2022-11-15T08:30:29;10.70;99.90
13268;DHT22;6702;47.068;15.458;2022-11-15T08:33:32;10.70;99.90
13268;DHT22;6702;47.068;15.458;2022-11-15T08:36:36;10.70;99.90
13268;DHT22;6702;47.068;15.458;2022-11-15T08:39:46;10.80;99.90
13268;DHT22;6702;47.068;15.458;2022-11-15T08:42:51;10.80;99.90
13268;DHT22;6702;47.068;15.458;2022-11-15T08:45:55;10.80;99.90
13268;DHT22;6702;47.068;15.458;2022-11-15T08:48:59;10.80;99.90
13268;DHT22;6702;47.068;15.458;2022-11-15T08:52:02;10.90;99.90
13268;DHT22;6702;47.068;15.458;2022-11-15T08:55:06;11.00;99.90
13268;DHT22;6702;47.068;15.458;2022-11-15T08:58:11;11.00;99.90
13268;DHT22;6702;47.068;15.458;2022-11-15T09:01:16;11.10;99.90
13268;DHT22;6702;47.068;15.458;2022-11-15T09:04:20;11.20;99.90
13268;DHT22;6702;47.068;15.458;2022-11-15T09:07:23;11.20;99.90
13268;DHT22;6702;47.068;15.458;2022-11-15T09:10:26;11.20;99.90
13268;DHT22;6702;47.068;15.458;2022-11-15T09:13:31;11.30;99.90
13268;DHT22;6702;47.068;15.458;2022-11-15T09:16:36;11.20;99.90
13268;DHT22;6702;47.068;15.458;2022-11-15T09:19:39;11.20;99.90
13268;DHT22;6702;47.068;15.458;2022-11-15T09:22:42;11.20;99.90
13268;DHT22;6702;47.068;15.458;2022-11-15T09:25:46;11.10;99.90
13268;DHT22;6702;47.068;15.458;2022-11-15T09:28:50;11.00;99.90
13268;DHT22;6702;47.068;15.458;2022-11-15T09:31:54;10.90;99.90
13268;DHT22;6702;47.068;15.458;2022-11-15T09:34:57;10.90;99.90
13268;DHT22;6702;47.068;15.458;2022-11-15T09:38:00;11.00;99.90
13268;DHT22;6702;47.068;15.458;2022-11-15T09:41:34;11.00;99.90
13268;DHT22;6702;47.068;15.458;2022-11-15T09:44:59;11.00;99.90
13268;DHT22;6702;47.068;15.458;2022-11-15T09:48:28;11.00;99.90
13268;DHT22;6702;47.068;15.458;2022-11-15T09:51:36;10.90;99.90
13268;DHT22;6702;47.068;15.458;2022-11-15T09:54:50;10.90;99.90
13268;DHT22;6702;47.068;15.458;2022-11-15T09:58:03;10.90;99.90
13268;DHT22;6702;47.068;15.458;2022-11-15T10:01:16;10.90;99.90
13268;DHT22;6702;47.068;15.458;2022-11-15T10:04:21;10.90;99.90
13268;DHT22;6702;47.068;15.458;2022-11-15T10:07:27;11.00;99.90
13268;DHT22;6702;47.068;15.458;2022-11-15T10:10:36;11.00;99.90
13268;DHT22;6702;47.068;15.458;2022-11-15T10:13:44;11.10;99.90
13268;DHT22;6702;47.068;15.458;2022-11-15T10:17:24;11.20;99.90
13268;DHT22;6702;47.068;15.458;2022-11-15T10:20:33;11.30;99.90
13268;DHT22;6702;47.068;15.458;2022-11-15T10:23:38;11.60;99.90
13268;DHT22;6702;47.068;15.458;2022-11-15T10:26:46;11.80;99.90
13268;DHT22;6702;47.068;15.458;2022-11-15T10:29:50;12.00;99.90
13268;DHT22;6702;47.068;15.458;2022-11-15T10:32:54;12.10;99.90
13268;DHT22;6702;47.068;15.458;2022-11-15T10:36:19;12.10;99.90
13268;DHT22;6702;47.068;15.458;2022-11-15T10:39:24;12.20;99.90
13268;DHT22;6702;47.068;15.458;2022-11-15T10:42:29;12.20;99.90
13268;DHT22;6702;47.068;15.458;2022-11-15T10:45:33;12.20;99.90
13268;DHT22;6702;47.068;15.458;2022-11-15T10:48:38;12.00;99.90
13268;DHT22;6702;47.068;15.458;2022-11-15T10:51:44;11.90;99.90
13268;DHT22;6702;47.068;15.458;2022-11-15T10:54:51;12.00;99.90
13268;DHT22;6702;47.068;15.458;2022-11-15T10:58:01;12.00;99.90
13268;DHT22;6702;47.068;15.458;2022-11-15T11:01:14;12.10;99.90
13268;DHT22;6702;47.068;15.458;2022-11-15T11:04:19;12.00;99.90
13268;DHT22;6702;47.068;15.458;2022-11-15T11:07:24;11.90;99.90
13268;DHT22;6702;47.068;15.458;2022-11-15T11:10:28;11.80;99.90
13268;DHT22;6702;47.068;15.458;2022-11-15T11:13:52;11.40;99.90
13268;DHT22;6702;47.068;15.458;2022-11-15T11:17:01;11.10;99.90
13268;DHT22;6702;47.068;15.458;2022-11-15T11:20:14;11.30;99.90
13268;DHT22;6702;47.068;15.458;2022-11-15T11:23:34;11.50;99.90
13268;DHT22;6702;47.068;15.458;2022-11-15T11:26:42;11.80;99.90
13268;DHT22;6702;47.068;15.458;2022-11-15T11:30:03;11.90;99.90
13268;DHT22;6702;47.068;15.458;2022-11-15T11:33:14;12.00;99.90
13268;DHT22;6702;47.068;15.458;2022-11-15T11:36:26;12.10;99.90
13268;DHT22;6702;47.068;15.458;2022-11-15T11:39:37;12.20;99.90
13268;DHT22;6702;47.068;15.458;2022-11-15T11:42:50;12.10;99.90
13268;DHT22;6702;47.068;15.458;2022-11-15T11:46:14;12.00;99.90
13268;DHT22;6702;47.068;15.458;2022-11-15T11:49:25;12.00;99.90
13268;DHT22;6702;47.068;15.458;2022-11-15T11:52:34;12.00;99.90
13268;DHT22;6702;47.068;15.458;2022-11-15T11:55:43;12.00;99.90
13268;DHT22;6702;47.068;15.458;2022-11-15T11:58:48;11.70;99.90
13268;DHT22;6702;47.068;15.458;2022-11-15T12:01:53;11.80;99.90
13268;DHT22;6702;47.068;15.458;2022-11-15T12:05:04;11.80;99.90
13268;DHT22;6702;47.068;15.458;2022-11-15T12:08:25;11.80;99.90
13268;DHT22;6702;47.068;15.458;2022-11-15T12:11:36;11.80;99.90
13268;DHT22;6702;47.068;15.458;2022-11-15T12:14:44;11.90;99.90
13268;DHT22;6702;47.068;15.458;2022-11-15T12:17:48;12.00;99.90
13268;DHT22;6702;47.068;15.458;2022-11-15T12:20:56;11.90;99.90
13268;DHT22;6702;47.068;15.458;2022-11-15T12:24:06;11.70;99.90
13268;DHT22;6702;47.068;15.458;2022-11-15T12:27:17;11.70;99.90
13268;DHT22;6702;47.068;15.458;2022-11-15T12:30:38;11.60;99.90
13268;DHT22;6702;47.068;15.458;2022-11-15T12:33:45;11.50;99.90
13268;DHT22;6702;47.068;15.458;2022-11-15T12:36:50;11.40;99.90
13268;DHT22;6702;47.068;15.458;2022-11-15T12:43:37;11.20;99.90
13268;DHT22;6702;47.068;15.458;2022-11-15T12:47:03;11.20;99.90
13268;DHT22;6702;47.068;15.458;2022-11-15T12:50:16;11.10;99.90
13268;DHT22;6702;47.068;15.458;2022-11-15T12:53:29;11.00;99.90
13268;DHT22;6702;47.068;15.458;2022-11-15T12:56:34;10.90;99.90
13268;DHT22;6702;47.068;15.458;2022-11-15T12:59:50;10.70;99.90
13268;DHT22;6702;47.068;15.458;2022-11-15T13:03:26;10.80;99.90
13268;DHT22;6702;47.068;15.458;2022-11-15T13:06:41;10.80;99.90
13268;DHT22;6702;47.068;15.458;2022-11-15T13:09:55;10.80;99.90
13268;DHT22;6702;47.068;15.458;2022-11-15T13:13:00;10.90;99.90
13268;DHT22;6702;47.068;15.458;2022-11-15T13:16:05;10.90;99.90
13268;DHT22;6702;47.068;15.458;2022-11-15T13:19:10;10.80;99.90
13268;DHT22;6702;47.068;15.458;2022-11-15T13:22:14;10.80;99.90
13268;DHT22;6702;47.068;15.458;2022-11-15T13:26:12;10.80;99.90
13268;DHT22;6702;47.068;15.458;2022-11-15T13:29:20;10.80;99.90
13268;DHT22;6702;47.068;15.458;2022-11-15T13:32:23;10.80;99.90
13268;DHT22;6702;47.068;15.458;2022-11-15T13:35:28;10.80;99.90
13268;DHT22;6702;47.068;15.458;2022-11-15T13:38:34;10.90;99.90
13268;DHT22;6702;47.068;15.458;2022-11-15T13:41:51;10.90;99.90
13268;DHT22;6702;47.068;15.458;2022-11-15T13:44:57;10.90;99.90
13268;DHT22;6702;47.068;15.458;2022-11-15T13:48:03;10.90;99.90
13268;DHT22;6702;47.068;15.458;2022-11-15T13:51:12;10.90;99.90
13268;DHT22;6702;47.068;15.458;2022-11-15T13:54:20;11.00;99.90
13268;DHT22;6702;47.068;15.458;2022-11-15T13:57:29;11.10;99.90
13268;DHT22;6702;47.068;15.458;2022-11-15T14:00:38;11.20;99.90
13268;DHT22;6702;47.068;15.458;2022-11-15T14:03:52;11.20;99.90
13268;DHT22;6702;47.068;15.458;2022-11-15T14:06:57;11.10;99.90
13268;DHT22;6702;47.068;15.458;2022-11-15T14:10:23;11.10;99.90
13268;DHT22;6702;47.068;15.458;2022-11-15T14:13:28;11.10;99.90
13268;DHT22;6702;47.068;15.458;2022-11-15T14:16:36;11.00;99.90
13268;DHT22;6702;47.068;15.458;2022-11-15T14:19:40;11.00;99.90
13268;DHT22;6702;47.068;15.458;2022-11-15T14:22:51;11.00;99.90
13268;DHT22;6702;47.068;15.458;2022-11-15T14:25:55;11.00;99.90
13268;DHT22;6702;47.068;15.458;2022-11-15T14:29:23;11.10;99.90
13268;DHT22;6702;47.068;15.458;2022-11-15T14:32:29;11.10;99.90
13268;DHT22;6702;47.068;15.458;2022-11-15T14:35:33;10.80;99.90
13268;DHT22;6702;47.068;15.458;2022-11-15T14:38:41;10.70;99.90
13268;DHT22;6702;47.068;15.458;2022-11-15T14:41:44;10.80;99.90
13268;DHT22;6702;47.068;15.458;2022-11-15T14:44:48;10.80;99.90
13268;DHT22;6702;47.068;15.458;2022-11-15T14:47:52;10.90;99.90
13268;DHT22;6702;47.068;15.458;2022-11-15T14:50:56;10.90;99.90
13268;DHT22;6702;47.068;15.458;2022-11-15T14:54:00;10.90;99.90
13268;DHT22;6702;47.068;15.458;2022-11-15T14:57:03;10.90;99.90
13268;DHT22;6702;47.068;15.458;2022-11-15T15:00:07;10.90;99.90
13268;DHT22;6702;47.068;15.458;2022-11-15T15:03:13;10.90;99.90
13268;DHT22;6702;47.068;15.458;2022-11-15T15:06:16;10.90;99.90
13268;DHT22;6702;47.068;15.458;2022-11-15T15:09:19;10.90;99.90
13268;DHT22;6702;47.068;15.458;2022-11-15T15:12:23;10.90;99.90
13268;DHT22;6702;47.068;15.458;2022-11-15T15:15:31;10.80;99.90
13268;DHT22;6702;47.068;15.458;2022-11-15T15:18:36;10.70;99.90
13268;DHT22;6702;47.068;15.458;2022-11-15T15:21:39;10.70;99.90
13268;DHT22;6702;47.068;15.458;2022-11-15T15:24:42;10.80;99.90
13268;DHT22;6702;47.068;15.458;2022-11-15T15:27:45;10.80;99.90
13268;DHT22;6702;47.068;15.458;2022-11-15T15:30:48;10.80;99.90
13268;DHT22;6702;47.068;15.458;2022-11-15T15:33:53;10.90;99.90
13268;DHT22;6702;47.068;15.458;2022-11-15T15:37:22;10.90;99.90
13268;DHT22;6702;47.068;15.458;2022-11-15T15:40:28;10.80;99.90
13268;DHT22;6702;47.068;15.458;2022-11-15T15:43:32;10.80;99.90
13268;DHT22;6702;47.068;15.458;2022-11-15T15:46:35;10.80;99.90
13268;DHT22;6702;47.068;15.458;2022-11-15T15:49:40;10.80;99.90
13268;DHT22;6702;47.068;15.458;2022-11-15T15:52:43;10.90;99.90
13268;DHT22;6702;47.068;15.458;2022-11-15T15:55:46;10.90;99.90
13268;DHT22;6702;47.068;15.458;2022-11-15T15:58:50;11.00;99.90
13268;DHT22;6702;47.068;15.458;2022-11-15T16:01:54;11.00;99.90
13268;DHT22;6702;47.068;15.458;2022-11-15T16:04:58;11.00;99.90
13268;DHT22;6702;47.068;15.458;2022-11-15T16:08:02;11.10;99.90
13268;DHT22;6702;47.068;15.458;2022-11-15T16:11:05;11.00;99.90
13268;DHT22;6702;47.068;15.458;2022-11-15T16:14:09;11.10;99.90
13268;DHT22;6702;47.068;15.458;2022-11-15T16:17:16;11.10;99.90
13268;DHT22;6702;47.068;15.458;2022-11-15T16:20:31;11.10;99.90
13268;DHT22;6702;47.068;15.458;2022-11-15T16:23:34;11.20;99.90
13268;DHT22;6702;47.068;15.458;2022-11-15T16:26:38;11.10;99.90
13268;DHT22;6702;47.068;15.458;2022-11-15T16:29:45;11.10;99.90
13268;DHT22;6702;47.068;15.458;2022-11-15T16:32:49;11.00;99.90
13268;DHT22;6702;47.068;15.458;2022-11-15T16:35:54;11.00;99.90
13268;DHT22;6702;47.068;15.458;2022-11-15T16:38:58;11.00;99.90
13268;DHT22;6702;47.068;15.458;2022-11-15T16:42:01;11.10;99.90
13268;DHT22;6702;47.068;15.458;2022-11-15T16:45:07;11.10;99.90
13268;DHT22;6702;47.068;15.458;2022-11-15T16:48:21;11.10;99.90
13268;DHT22;6702;47.068;15.458;2022-11-15T16:51:26;11.10;99.90
13268;DHT22;6702;47.068;15.458;2022-11-15T16:54:29;11.10;99.90
13268;DHT22;6702;47.068;15.458;2022-11-15T16:57:35;11.10;99.90
13268;DHT22;6702;47.068;15.458;2022-11-15T17:00:39;11.20;99.90
13268;DHT22;6702;47.068;15.458;2022-11-15T17:03:43;11.20;99.90
13268;DHT22;6702;47.068;15.458;2022-11-15T17:06:50;11.20;99.90
13268;DHT22;6702;47.068;15.458;2022-11-15T17:09:54;11.20;99.90
13268;DHT22;6702;47.068;15.458;2022-11-15T17:12:57;11.20;99.90
13268;DHT22;6702;47.068;15.458;2022-11-15T17:16:05;11.20;99.90
13268;DHT22;6702;47.068;15.458;2022-11-15T17:19:13;11.10;99.90
13268;DHT22;6702;47.068;15.458;2022-11-15T17:22:18;11.00;99.90
13268;DHT22;6702;47.068;15.458;2022-11-15T17:25:21;11.00;99.90
13268;DHT22;6702;47.068;15.458;2022-11-15T17:28:26;11.00;99.90
13268;DHT22;6702;47.068;15.458;2022-11-15T17:31:30;11.00;99.90
13268;DHT22;6702;47.068;15.458;2022-11-15T17:34:35;11.00;99.90
13268;DHT22;6702;47.068;15.458;2022-11-15T17:37:40;11.00;99.90
13268;DHT22;6702;47.068;15.458;2022-11-15T17:40:44;10.90;99.90
13268;DHT22;6702;47.068;15.458;2022-11-15T17:43:49;10.90;99.90
13268;DHT22;6702;47.068;15.458;2022-11-15T17:46:52;10.90;99.90
13268;DHT22;6702;47.068;15.458;2022-11-15T17:49:56;10.90;99.90
13268;DHT22;6702;47.068;15.458;2022-11-15T17:53:00;10.80;99.90
13268;DHT22;6702;47.068;15.458;2022-11-15T17:56:06;10.90;99.90
13268;DHT22;6702;47.068;15.458;2022-11-15T17:59:12;10.80;99.90
13268;DHT22;6702;47.068;15.458;2022-11-15T18:02:22;10.80;99.90
13268;DHT22;6702;47.068;15.458;2022-11-15T18:05:25;10.80;99.90
13268;DHT22;6702;47.068;15.458;2022-11-15T18:08:35;10.70;99.90
13268;DHT22;6702;47.068;15.458;2022-11-15T18:11:40;10.80;99.90
13268;DHT22;6702;47.068;15.458;2022-11-15T18:14:44;10.80;99.90
13268;DHT22;6702;47.068;15.458;2022-11-15T18:17:48;10.80;99.90
13268;DHT22;6702;47.068;15.458;2022-11-15T18:20:58;10.80;99.90
13268;DHT22;6702;47.068;15.458;2022-11-15T18:24:04;10.90;99.90
13268;DHT22;6702;47.068;15.458;2022-11-15T18:27:13;10.90;99.90
13268;DHT22;6702;47.068;15.458;2022-11-15T18:30:17;10.90;99.90
13268;DHT22;6702;47.068;15.458;2022-11-15T18:33:21;10.90;99.90
13268;DHT22;6702;47.068;15.458;2022-11-15T18:36:29;10.90;99.90
13268;DHT22;6702;47.068;15.458;2022-11-15T18:39:34;10.90;99.90
13268;DHT22;6702;47.068;15.458;2022-11-15T18:42:39;10.90;99.90
13268;DHT22;6702;47.068;15.458;2022-11-15T18:45:44;10.90;99.90
13268;DHT22;6702;47.068;15.458;2022-11-15T18:48:50;10.90;99.90
13268;DHT22;6702;47.068;15.458;2022-11-15T18:51:57;10.90;99.90
13268;DHT22;6702;47.068;15.458;2022-11-15T18:55:03;10.80;99.90
13268;DHT22;6702;47.068;15.458;2022-11-15T18:58:08;10.80;99.90
13268;DHT22;6702;47.068;15.458;2022-11-15T19:01:13;10.80;99.90
13268;DHT22;6702;47.068;15.458;2022-11-15T19:04:19;10.80;99.90
13268;DHT22;6702;47.068;15.458;2022-11-15T19:07:23;10.80;99.90
13268;DHT22;6702;47.068;15.458;2022-11-15T19:10:28;10.80;99.90
13268;DHT22;6702;47.068;15.458;2022-11-15T19:13:33;10.70;99.90
13268;DHT22;6702;47.068;15.458;2022-11-15T19:16:38;10.70;99.90
13268;DHT22;6702;47.068;15.458;2022-11-15T19:19:43;10.70;99.90
13268;DHT22;6702;47.068;15.458;2022-11-15T19:22:46;10.70;99.90
13268;DHT22;6702;47.068;15.458;2022-11-15T19:25:55;10.80;99.90
13268;DHT22;6702;47.068;15.458;2022-11-15T19:29:02;10.80;99.90
13268;DHT22;6702;47.068;15.458;2022-11-15T19:32:06;10.80;99.90
13268;DHT22;6702;47.068;15.458;2022-11-15T19:35:10;10.90;99.90
13268;DHT22;6702;47.068;15.458;2022-11-15T19:38:14;10.90;99.90
13268;DHT22;6702;47.068;15.458;2022-11-15T19:41:21;10.80;99.90
13268;DHT22;6702;47.068;15.458;2022-11-15T19:44:27;10.80;99.90
13268;DHT22;6702;47.068;15.458;2022-11-15T19:47:31;10.70;99.90
13268;DHT22;6702;47.068;15.458;2022-11-15T19:50:36;10.80;99.90
13268;DHT22;6702;47.068;15.458;2022-11-15T19:53:40;10.80;99.90